createdAt,value
2022-11-24T00:00:42.289Z,0.16
2022-11-24T00:04:02.465Z,0.17
2022-11-24T00:07:17.013Z,0.18
2022-11-24T00:10:18.814Z,0.18
2022-11-24T00:13:20.551Z,0.18
2022-11-24T00:16:23.533Z,0.18
2022-11-24T00:19:25.701Z,0.19
2022-11-24T00:22:28.135Z,0.19
2022-11-24T00:25:29.966Z,0.20
2022-11-24T00:28:33.601Z,0.19
2022-11-24T00:31:42.680Z,0.19
2022-11-24T00:34:44.452Z,0.21
2022-11-24T00:37:46.296Z,0.21
2022-11-24T00:40:48.072Z,0.20
2022-11-24T00:43:53.501Z,0.19
2022-11-24T00:46:55.455Z,0.19
2022-11-24T00:49:57.445Z,0.18
2022-11-24T00:52:59.477Z,0.20
2022-11-24T00:56:03.873Z,0.19
2022-11-24T00:59:05.853Z,0.21
2022-11-24T01:02:07.903Z,0.22
2022-11-24T01:05:09.768Z,0.21
2022-11-24T01:08:11.636Z,0.18
2022-11-24T01:11:26.084Z,0.16
2022-11-24T01:14:28.797Z,0.15
2022-11-24T01:17:30.781Z,0.16
2022-11-24T01:20:32.697Z,0.16
2022-11-24T01:23:34.761Z,0.17
2022-11-24T01:26:36.981Z,0.17
2022-11-24T01:29:38.860Z,0.18
2022-11-24T01:32:40.701Z,0.15
2022-11-24T01:35:42.489Z,0.13
2022-11-24T01:38:44.109Z,0.10
2022-11-24T01:41:45.970Z,0.08
2022-11-24T01:44:48.467Z,0.07
2022-11-24T01:47:50.318Z,0.04
2022-11-24T01:50:57.145Z,0.00
2022-11-24T01:54:08.961Z,-0.02
2022-11-24T01:57:24.413Z,-0.04
2022-11-24T02:00:26.284Z,-0.06
2022-11-24T02:03:31.363Z,-0.05
2022-11-24T02:06:34.055Z,-0.04
2022-11-24T02:09:43.370Z,-0.02
2022-11-24T02:12:47.643Z,-0.01
2022-11-24T02:15:49.453Z,0.03
2022-11-24T02:18:51.406Z,0.04
2022-11-24T02:21:53.251Z,0.07
2022-11-24T02:25:10.284Z,0.08
2022-11-24T02:28:18.407Z,0.09
2022-11-24T02:31:20.473Z,0.08
2022-11-24T02:34:22.416Z,0.08
2022-11-24T02:37:25.254Z,0.09
2022-11-24T02:40:28.141Z,0.10
2022-11-24T02:43:34.633Z,0.09
2022-11-24T02:46:36.372Z,0.09
2022-11-24T02:49:38.077Z,0.08
2022-11-24T02:52:39.915Z,0.07
2022-11-24T02:55:41.679Z,0.05
2022-11-24T02:58:43.455Z,0.06
2022-11-24T03:01:45.528Z,0.06
2022-11-24T03:04:47.391Z,0.06
2022-11-24T03:07:49.167Z,0.07
2022-11-24T03:10:50.977Z,0.06
2022-11-24T03:13:52.612Z,0.07
2022-11-24T03:16:54.487Z,0.08
2022-11-24T03:20:00.129Z,0.08
2022-11-24T03:23:05.224Z,0.08
2022-11-24T03:26:11.855Z,0.07
2022-11-24T03:29:13.689Z,0.09
2022-11-24T03:32:15.320Z,0.09
2022-11-24T03:35:17.165Z,0.08
2022-11-24T03:38:18.900Z,0.10
2022-11-24T03:41:20.738Z,0.10
2022-11-24T03:44:22.726Z,0.11
2022-11-24T03:47:27.761Z,0.13
2022-11-24T03:50:29.549Z,0.13
2022-11-24T03:53:32.032Z,0.13
2022-11-24T03:56:33.819Z,0.12
2022-11-24T03:59:35.529Z,0.12
2022-11-24T04:02:38.194Z,0.12
2022-11-24T04:05:40.208Z,0.13
2022-11-24T04:08:42.094Z,0.14
2022-11-24T04:12:02.448Z,0.13
2022-11-24T04:15:04.884Z,0.13
2022-11-24T04:18:07.661Z,0.12
2022-11-24T04:21:09.627Z,0.12
2022-11-24T04:24:11.377Z,0.11
2022-11-24T04:27:13.295Z,0.11
2022-11-24T04:30:15.195Z,0.09
2022-11-24T04:33:17.107Z,0.09
2022-11-24T04:36:18.913Z,0.07
2022-11-24T04:39:26.347Z,0.07
2022-11-24T04:42:30.214Z,0.07
2022-11-24T04:45:31.877Z,0.08
2022-11-24T04:48:33.794Z,0.08
2022-11-24T04:51:35.464Z,0.09
2022-11-24T04:54:37.092Z,0.06
2022-11-24T04:57:39.065Z,-0.04
2022-11-24T05:00:41.000Z,-0.25
2022-11-24T05:03:42.859Z,-0.41
2022-11-24T05:06:44.671Z,-0.47
2022-11-24T05:10:05.741Z,-0.49
2022-11-24T05:13:10.689Z,-0.48
2022-11-24T05:16:12.659Z,-0.53
2022-11-24T05:19:14.576Z,-0.64
2022-11-24T05:22:16.442Z,-0.66
2022-11-24T05:25:18.126Z,-0.45
2022-11-24T05:28:19.945Z,-0.25
2022-11-24T05:31:21.721Z,-0.36
2022-11-24T05:34:23.959Z,-0.43
2022-11-24T05:37:25.778Z,-0.45
2022-11-24T05:40:27.515Z,-0.46
2022-11-24T05:43:29.315Z,-0.47
2022-11-24T05:46:31.021Z,-0.49
2022-11-24T05:49:32.554Z,-0.52
2022-11-24T05:52:34.925Z,-0.62
2022-11-24T05:55:36.894Z,-0.68
2022-11-24T05:58:38.791Z,-0.52
2022-11-24T06:01:40.565Z,-0.25
2022-11-24T06:04:42.328Z,-0.28
2022-11-24T06:07:44.146Z,-0.46
2022-11-24T06:10:45.947Z,-0.53
2022-11-24T06:13:48.710Z,-0.54
2022-11-24T06:16:50.740Z,-0.54
2022-11-24T06:19:52.309Z,-0.52
2022-11-24T06:22:54.106Z,-0.49
2022-11-24T06:25:57.598Z,-0.48
2022-11-24T06:28:59.530Z,-0.55
2022-11-24T06:32:01.934Z,-0.54
2022-11-24T06:35:04.894Z,-0.30
2022-11-24T06:38:07.485Z,-0.20
2022-11-24T06:41:15.935Z,-0.29
2022-11-24T06:44:18.121Z,-0.30
2022-11-24T06:47:19.815Z,-0.17
2022-11-24T06:50:22.208Z,-0.04
2022-11-24T06:53:24.055Z,0.04
2022-11-24T06:56:25.963Z,0.08
2022-11-24T06:59:27.801Z,0.11
2022-11-24T07:02:29.656Z,0.15
2022-11-24T07:05:31.407Z,0.17
2022-11-24T07:08:33.192Z,0.19
2022-11-24T07:11:35.168Z,0.20
2022-11-24T07:14:37.422Z,0.21
2022-11-24T07:17:39.891Z,0.20
2022-11-24T07:20:41.573Z,0.21
2022-11-24T07:23:43.424Z,0.21
2022-11-24T07:26:45.240Z,0.21
2022-11-24T07:29:47.220Z,0.21
2022-11-24T07:32:49.090Z,0.22
2022-11-24T07:35:51.769Z,0.21
2022-11-24T07:38:53.450Z,0.21
2022-11-24T07:41:55.506Z,0.22
2022-11-24T07:44:57.367Z,0.22
2022-11-24T07:47:59.017Z,0.23
2022-11-24T07:51:01.271Z,0.22
2022-11-24T07:54:03.044Z,0.20
2022-11-24T07:57:04.727Z,0.21
2022-11-24T08:00:06.906Z,0.18
2022-11-24T08:03:08.816Z,0.17
2022-11-24T08:06:31.773Z,0.15
2022-11-24T08:09:34.221Z,0.14
2022-11-24T08:12:35.993Z,0.13
2022-11-24T08:15:37.608Z,0.13
2022-11-24T08:18:39.685Z,0.13
2022-11-24T08:21:41.428Z,0.12
2022-11-24T08:24:47.262Z,0.12
2022-11-24T08:27:49.049Z,0.11
2022-11-24T08:30:50.833Z,0.09
2022-11-24T08:33:52.700Z,0.10
2022-11-24T08:36:54.432Z,0.09
2022-11-24T08:39:56.164Z,0.09
2022-11-24T08:43:01.255Z,0.07
2022-11-24T08:46:06.343Z,0.05
2022-11-24T08:49:08.358Z,0.05
2022-11-24T08:52:10.041Z,0.03
2022-11-24T08:55:11.914Z,0.01
2022-11-24T08:58:13.631Z,-0.01
2022-11-24T09:01:15.866Z,-0.02
2022-11-24T09:04:17.816Z,-0.04
2022-11-24T09:07:20.437Z,-0.05
2022-11-24T09:10:22.136Z,-0.06
2022-11-24T09:13:23.917Z,-0.06
2022-11-24T09:16:27.713Z,-0.07
2022-11-24T09:19:29.757Z,-0.07
2022-11-24T09:22:31.897Z,-0.07
2022-11-24T09:25:33.573Z,-0.07
2022-11-24T09:28:35.575Z,-0.08
2022-11-24T09:31:39.231Z,-0.08
2022-11-24T09:34:40.987Z,-0.06
2022-11-24T09:37:44.821Z,-0.06
2022-11-24T09:40:46.610Z,-0.05
2022-11-24T09:43:59.490Z,-0.04
2022-11-24T09:47:10.390Z,-0.03
2022-11-24T09:50:18.709Z,-0.00
2022-11-24T09:53:42.249Z,0.03
2022-11-24T09:56:44.135Z,0.05
2022-11-24T09:59:45.845Z,0.08
2022-11-24T10:02:48.009Z,0.11
2022-11-24T10:05:51.155Z,0.12
2022-11-24T10:09:07.659Z,0.14
2022-11-24T10:12:35.043Z,0.15
2022-11-24T10:15:45.053Z,0.16
2022-11-24T10:19:13.224Z,0.17
2022-11-24T10:22:55.095Z,0.17
2022-11-24T10:25:58.227Z,0.19
2022-11-24T10:28:59.897Z,0.21
2022-11-24T10:32:01.611Z,0.24
2022-11-24T10:35:18.748Z,0.26
2022-11-24T10:38:40.485Z,0.30
2022-11-24T10:41:59.305Z,0.34
2022-11-24T10:45:13.492Z,0.36
2022-11-24T10:48:26.757Z,0.38
2022-11-24T10:51:31.325Z,0.42
2022-11-24T10:54:35.990Z,0.44
2022-11-24T10:57:40.963Z,0.48
2022-11-24T11:00:42.872Z,0.51
2022-11-24T11:03:48.264Z,0.53
2022-11-24T11:06:50.399Z,0.53
2022-11-24T11:10:22.069Z,0.53
2022-11-24T11:13:30.835Z,0.54
2022-11-24T11:16:38.792Z,0.55
2022-11-24T11:19:49.453Z,0.58
2022-11-24T11:22:51.858Z,0.60
2022-11-24T11:26:24.953Z,0.62
2022-11-24T11:36:19.941Z,0.70
2022-11-24T11:39:32.809Z,0.69
2022-11-24T11:46:12.256Z,0.60
2022-11-24T11:49:14.264Z,0.58
2022-11-24T11:52:15.719Z,0.55
2022-11-24T11:55:59.434Z,0.50
2022-11-24T11:59:16.696Z,0.45
2022-11-24T12:02:49.967Z,0.41
2022-11-24T12:06:03.875Z,0.37
2022-11-24T12:09:23.605Z,0.34
2022-11-24T12:12:34.568Z,0.28
2022-11-24T12:15:44.958Z,0.22
2022-11-24T12:19:05.679Z,0.18
2022-11-24T12:22:24.918Z,0.14
2022-11-24T12:25:31.382Z,0.11
2022-11-24T12:28:44.018Z,0.07
2022-11-24T12:32:10.609Z,0.05
2022-11-24T12:35:23.483Z,0.02
2022-11-24T12:38:30.625Z,0.01
2022-11-24T12:41:49.259Z,-0.05
2022-11-24T12:45:09.449Z,-0.10
2022-11-24T12:48:48.547Z,-0.13
2022-11-24T12:51:58.433Z,-0.16
2022-11-24T12:55:00.589Z,-0.18
2022-11-24T12:58:24.196Z,-0.22
2022-11-24T13:01:36.256Z,-0.25
2022-11-24T13:04:46.953Z,-0.27
2022-11-24T13:07:54.123Z,-0.29
2022-11-24T13:11:21.808Z,-0.29
2022-11-24T13:14:30.677Z,-0.30
2022-11-24T13:20:58.251Z,-0.32
2022-11-24T13:24:02.548Z,-0.34
2022-11-24T13:27:13.666Z,-0.35
2022-11-24T13:30:44.983Z,-0.35
2022-11-24T13:33:47.104Z,-0.37
2022-11-24T13:36:53.670Z,-0.38
2022-11-24T13:40:14.251Z,-0.38
2022-11-24T13:43:16.093Z,-0.39
2022-11-24T13:47:03.310Z,-0.38
2022-11-24T13:50:19.326Z,-0.38
2022-11-24T13:53:42.157Z,-0.36
2022-11-24T13:56:43.818Z,-0.35
2022-11-24T13:59:45.539Z,-0.34
2022-11-24T14:02:48.240Z,-0.33
2022-11-24T14:05:53.533Z,-0.33
2022-11-24T14:08:55.791Z,-0.33
2022-11-24T14:12:08.059Z,-0.33
2022-11-24T14:15:25.229Z,-0.40
2022-11-24T14:18:29.369Z,-0.49
2022-11-24T14:21:36.590Z,-0.54
2022-11-24T14:24:41.543Z,-0.59
2022-11-24T14:27:43.788Z,-0.64
2022-11-24T14:30:45.289Z,-0.68
2022-11-24T14:33:47.339Z,-0.70
2022-11-24T14:36:49.512Z,-0.71
2022-11-24T14:39:51.251Z,-0.70
2022-11-24T14:42:52.780Z,-0.71
2022-11-24T14:46:14.515Z,-0.72
2022-11-24T14:49:23.204Z,-0.73
2022-11-24T14:52:25.574Z,-0.74
2022-11-24T14:55:30.027Z,-0.74
2022-11-24T14:58:36.475Z,-0.74
2022-11-24T15:01:40.851Z,-0.73
2022-11-24T15:05:02.692Z,-0.73
2022-11-24T15:08:05.450Z,-0.73
2022-11-24T15:11:07.638Z,-0.74
2022-11-24T15:14:46.364Z,-0.75
2022-11-24T15:17:48.931Z,-0.75
2022-11-24T15:20:50.754Z,-0.76
2022-11-24T15:24:11.450Z,-0.78
2022-11-24T15:27:13.411Z,-0.81
2022-11-24T15:30:15.228Z,-0.91
2022-11-24T15:33:18.430Z,-0.98
2022-11-24T15:36:20.889Z,-1.01
2022-11-24T15:39:22.845Z,-1.03
2022-11-24T15:42:24.680Z,-1.06
2022-11-24T15:45:29.238Z,-1.08
2022-11-24T15:48:31.521Z,-1.12
2022-11-24T15:51:33.884Z,-1.18
2022-11-24T15:54:36.543Z,-1.24
2022-11-24T15:57:38.511Z,-1.17
2022-11-24T16:00:40.544Z,-1.08
2022-11-24T16:03:47.592Z,-1.19
2022-11-24T16:06:50.673Z,-1.30
2022-11-24T16:09:52.865Z,-1.38
2022-11-24T16:12:54.896Z,-1.42
2022-11-24T16:15:56.594Z,-1.45
2022-11-24T16:18:58.220Z,-1.46
2022-11-24T16:22:00.235Z,-1.49
2022-11-24T16:25:04.139Z,-1.50
2022-11-24T16:28:05.867Z,-1.50
2022-11-24T16:31:07.527Z,-1.51
2022-11-24T16:34:09.197Z,-1.39
2022-11-24T16:37:10.831Z,-1.28
2022-11-24T16:40:12.946Z,-1.38
2022-11-24T16:43:14.629Z,-1.48
2022-11-24T16:46:21.317Z,-1.54
2022-11-24T16:49:23.199Z,-1.61
2022-11-24T16:52:24.936Z,-1.67
2022-11-24T16:55:27.036Z,-1.70
2022-11-24T16:58:29.033Z,-1.72
2022-11-24T17:01:32.846Z,-1.72
2022-11-24T17:04:35.197Z,-1.73
2022-11-24T17:07:37.264Z,-1.72
2022-11-24T17:10:39.011Z,-1.76
2022-11-24T17:13:41.588Z,-1.69
2022-11-24T17:16:43.442Z,-1.62
2022-11-24T17:19:45.292Z,-1.70
2022-11-24T17:22:46.818Z,-1.86
2022-11-24T17:25:48.841Z,-1.94
2022-11-24T17:28:50.855Z,-1.97
2022-11-24T17:31:52.596Z,-1.96
2022-11-24T17:34:54.188Z,-1.91
2022-11-24T17:37:57.120Z,-1.88
2022-11-24T17:40:59.232Z,-1.87
2022-11-24T17:44:01.124Z,-1.86
2022-11-24T17:47:02.791Z,-1.82
2022-11-24T17:50:04.904Z,-1.82
2022-11-24T17:53:06.759Z,-1.79
2022-11-24T17:56:08.731Z,-1.83
2022-11-24T17:59:10.569Z,-1.83
2022-11-24T18:02:12.261Z,-1.70
2022-11-24T18:05:13.931Z,-1.57
2022-11-24T18:08:15.647Z,-1.71
2022-11-24T18:11:30.226Z,-1.85
2022-11-24T18:14:33.550Z,-1.97
2022-11-24T18:17:35.616Z,-1.95
2022-11-24T18:20:37.181Z,-1.90
2022-11-24T18:23:38.990Z,-1.87
2022-11-24T18:26:40.851Z,-1.84
2022-11-24T18:29:42.461Z,-1.82
2022-11-24T18:32:44.237Z,-1.80
2022-11-24T18:35:59.998Z,-1.75
2022-11-24T18:39:06.067Z,-1.70
2022-11-24T18:42:11.183Z,-1.69
2022-11-24T18:45:12.882Z,-1.73
2022-11-24T18:48:14.771Z,-1.59
2022-11-24T18:51:16.519Z,-1.36
2022-11-24T18:54:18.316Z,-1.38
2022-11-24T18:57:19.903Z,-1.49
2022-11-24T19:00:21.803Z,-1.53
2022-11-24T19:03:23.458Z,-1.58
2022-11-24T19:06:34.102Z,-1.61
2022-11-24T19:09:36.164Z,-1.63
2022-11-24T19:12:37.771Z,-1.62
2022-11-24T19:15:39.564Z,-1.62
2022-11-24T19:18:41.450Z,-1.61
2022-11-24T19:21:43.260Z,-1.59
2022-11-24T19:24:46.657Z,-1.58
2022-11-24T19:27:48.567Z,-1.56
2022-11-24T19:30:50.234Z,-1.54
2022-11-24T19:33:54.305Z,-1.60
2022-11-24T19:36:56.055Z,-1.55
2022-11-24T19:39:57.679Z,-1.35
2022-11-24T19:42:59.599Z,-1.26
2022-11-24T19:46:06.925Z,-1.41
2022-11-24T19:49:08.967Z,-1.50
2022-11-24T19:52:10.817Z,-1.52
2022-11-24T19:55:12.492Z,-1.54
2022-11-24T19:58:14.630Z,-1.57
2022-11-24T20:01:24.772Z,-1.56
2022-11-24T20:04:26.719Z,-1.59
2022-11-24T20:07:28.382Z,-1.60
2022-11-24T20:10:30.455Z,-1.57
2022-11-24T20:13:34.101Z,-1.54
2022-11-24T20:16:36.579Z,-1.52
2022-11-24T20:19:38.555Z,-1.56
2022-11-24T20:22:40.413Z,-1.47
2022-11-24T20:25:42.109Z,-1.29
2022-11-24T20:28:43.791Z,-1.26
2022-11-24T20:31:48.775Z,-1.43
2022-11-24T20:34:50.669Z,-1.48
2022-11-24T20:37:52.303Z,-1.48
2022-11-24T20:41:04.658Z,-1.50
2022-11-24T20:44:15.471Z,-1.52
2022-11-24T20:47:17.270Z,-1.52
2022-11-24T20:50:18.984Z,-1.52
2022-11-24T20:53:20.707Z,-1.52
2022-11-24T20:56:31.695Z,-1.51
2022-11-24T20:59:33.581Z,-1.56
2022-11-24T21:02:35.326Z,-1.53
2022-11-24T21:05:37.529Z,-1.29
2022-11-24T21:08:39.615Z,-1.22
2022-11-24T21:11:41.516Z,-1.44
2022-11-24T21:14:43.240Z,-1.56
2022-11-24T21:17:44.879Z,-1.68
2022-11-24T21:20:47.219Z,-1.73
2022-11-24T21:23:49.443Z,-1.75
2022-11-24T21:26:52.969Z,-1.72
2022-11-24T21:29:54.917Z,-1.67
2022-11-24T21:32:56.639Z,-1.58
2022-11-24T21:36:04.996Z,-1.51
2022-11-24T21:39:06.899Z,-1.53
2022-11-24T21:42:08.980Z,-1.60
2022-11-24T21:45:11.786Z,-1.47
2022-11-24T21:48:13.602Z,-1.35
2022-11-24T21:51:15.872Z,-1.53
2022-11-24T21:54:17.499Z,-1.68
2022-11-24T21:57:19.237Z,-1.73
2022-11-24T22:00:20.960Z,-1.80
2022-11-24T22:03:22.851Z,-1.84
2022-11-24T22:06:24.612Z,-1.80
2022-11-24T22:09:26.396Z,-1.79
2022-11-24T22:12:29.340Z,-1.73
2022-11-24T22:15:31.016Z,-1.65
2022-11-24T22:18:43.128Z,-1.63
2022-11-24T22:21:44.924Z,-1.56
2022-11-24T22:24:46.816Z,-1.29
2022-11-24T22:27:48.614Z,-1.09
2022-11-24T22:30:50.279Z,-1.04
2022-11-24T22:33:52.963Z,-1.03
2022-11-24T22:36:54.597Z,-1.03
2022-11-24T22:39:56.262Z,-1.02
2022-11-24T22:43:00.179Z,-1.00
2022-11-24T22:46:11.295Z,-0.96
2022-11-24T22:49:13.190Z,-0.95
2022-11-24T22:52:14.816Z,-0.94
2022-11-24T22:55:16.590Z,-0.95
2022-11-24T22:58:18.250Z,-0.96
2022-11-24T23:01:22.606Z,-0.96
2022-11-24T23:04:24.533Z,-0.94
2022-11-24T23:07:26.381Z,-0.93
2022-11-24T23:10:28.114Z,-0.92
2022-11-24T23:13:30.426Z,-0.91
2022-11-24T23:16:32.248Z,-0.91
2022-11-24T23:19:34.009Z,-0.90
2022-11-24T23:22:36.003Z,-0.89
2022-11-24T23:25:37.607Z,-0.86
2022-11-24T23:28:39.932Z,-0.83
2022-11-24T23:31:41.812Z,-0.82
2022-11-24T23:34:43.525Z,-0.84
2022-11-24T23:38:06.680Z,-0.86
2022-11-24T23:41:10.921Z,-0.90
2022-11-24T23:44:12.710Z,-0.94
2022-11-24T23:47:14.394Z,-0.97
2022-11-24T23:50:16.107Z,-1.00
2022-11-24T23:53:17.691Z,-1.03
2022-11-24T23:56:24.968Z,-1.01
2022-11-24T23:59:27.087Z,-1.01
